createdAt,value
2018-08-16T00:00:41.685Z,10.20
2018-08-16T00:03:16.712Z,10.87
2018-08-16T00:05:51.667Z,11.87
2018-08-16T00:08:26.812Z,11.13
2018-08-16T00:11:01.687Z,10.80
2018-08-16T00:13:37.001Z,10.90
2018-08-16T00:16:12.040Z,11.50
2018-08-16T00:18:47.142Z,10.13
2018-08-16T00:21:22.306Z,10.63
2018-08-16T00:23:57.579Z,11.00
2018-08-16T00:26:32.586Z,10.70
2018-08-16T00:29:07.599Z,10.53
2018-08-16T00:31:42.785Z,11.07
2018-08-16T00:34:17.663Z,11.40
2018-08-16T00:36:52.501Z,10.80
2018-08-16T00:39:27.353Z,10.67
2018-08-16T00:42:02.609Z,9.87
2018-08-16T00:44:37.646Z,9.73
2018-08-16T00:47:12.859Z,9.73
2018-08-16T00:49:48.303Z,10.30
2018-08-16T00:52:23.357Z,10.70
2018-08-16T00:54:58.375Z,11.23
2018-08-16T00:57:33.624Z,11.07
2018-08-16T01:00:10.926Z,9.77
2018-08-16T01:02:46.380Z,10.20
2018-08-16T01:05:21.418Z,10.20
2018-08-16T01:07:56.320Z,11.80
2018-08-16T01:10:31.239Z,11.20
2018-08-16T01:13:06.506Z,10.73
2018-08-16T01:15:41.472Z,9.60
2018-08-16T01:18:16.559Z,10.33
2018-08-16T01:20:52.138Z,10.40
2018-08-16T01:23:27.832Z,11.13
2018-08-16T01:26:03.114Z,10.23
2018-08-16T01:28:37.997Z,10.70
2018-08-16T01:31:13.192Z,10.00
2018-08-16T01:33:54.995Z,11.47
2018-08-16T01:36:30.209Z,10.90
2018-08-16T01:39:06.834Z,11.50
2018-08-16T01:41:42.991Z,10.60
2018-08-16T01:44:18.044Z,10.90
2018-08-16T01:46:53.201Z,11.17
2018-08-16T01:49:36.629Z,10.30
2018-08-16T01:52:11.572Z,10.60
2018-08-16T01:54:46.601Z,11.20
2018-08-16T01:57:22.455Z,11.37
2018-08-16T01:59:57.364Z,10.63
2018-08-16T02:02:37.757Z,11.10
2018-08-16T02:05:12.591Z,10.80
2018-08-16T02:07:48.012Z,10.70
2018-08-16T02:10:22.951Z,11.90
2018-08-16T02:12:57.990Z,9.97
2018-08-16T02:15:33.293Z,11.23
2018-08-16T02:18:08.382Z,10.93
2018-08-16T02:20:43.598Z,11.60
2018-08-16T02:23:18.679Z,11.30
2018-08-16T02:25:54.010Z,11.50
2018-08-16T02:28:29.810Z,11.70
2018-08-16T02:31:04.776Z,12.07
2018-08-16T02:33:39.754Z,11.80
2018-08-16T02:36:15.159Z,11.50
2018-08-16T02:38:50.284Z,12.10
2018-08-16T02:41:25.182Z,11.63
2018-08-16T02:44:00.235Z,12.27
2018-08-16T02:46:35.279Z,11.80
2018-08-16T02:49:10.474Z,12.00
2018-08-16T02:51:45.788Z,11.50
2018-08-16T02:54:20.791Z,12.00
2018-08-16T02:56:56.147Z,12.50
2018-08-16T02:59:31.096Z,11.90
2018-08-16T03:02:06.229Z,12.63
2018-08-16T03:04:41.555Z,12.50
2018-08-16T03:07:16.739Z,11.87
2018-08-16T03:09:52.421Z,11.80
2018-08-16T03:12:27.234Z,11.70
2018-08-16T03:15:02.443Z,12.30
2018-08-16T03:17:37.742Z,11.70
2018-08-16T03:20:12.998Z,11.63
2018-08-16T03:22:48.135Z,11.77
2018-08-16T03:25:23.062Z,12.00
2018-08-16T03:27:58.214Z,12.53
2018-08-16T03:30:33.142Z,12.10
2018-08-16T03:33:08.514Z,12.57
2018-08-16T03:35:43.348Z,13.53
2018-08-16T03:38:18.333Z,11.70
2018-08-16T03:40:53.786Z,12.33
2018-08-16T03:43:28.470Z,13.10
2018-08-16T03:46:03.465Z,12.30
2018-08-16T03:48:38.258Z,11.83
2018-08-16T03:51:13.064Z,12.33
2018-08-16T03:53:48.144Z,12.50
2018-08-16T03:56:23.034Z,12.13
2018-08-16T03:58:57.797Z,13.27
2018-08-16T04:01:32.942Z,13.90
2018-08-16T04:04:08.042Z,12.83
2018-08-16T04:06:42.967Z,12.67
2018-08-16T04:09:18.562Z,13.17
2018-08-16T04:11:53.472Z,12.30
2018-08-16T04:14:28.303Z,12.40
2018-08-16T04:17:03.752Z,12.50
2018-08-16T04:19:39.319Z,12.57
2018-08-16T04:22:13.993Z,12.77
2018-08-16T04:24:48.936Z,12.37
2018-08-16T04:27:23.916Z,12.70
2018-08-16T04:29:58.707Z,13.57
2018-08-16T04:32:33.711Z,13.17
2018-08-16T04:35:08.566Z,13.00
2018-08-16T04:37:43.927Z,12.97
2018-08-16T04:40:18.819Z,13.07
2018-08-16T04:42:53.562Z,12.27
2018-08-16T04:45:28.555Z,12.67
2018-08-16T04:48:03.654Z,13.30
2018-08-16T04:50:38.852Z,13.00
2018-08-16T04:53:13.835Z,12.57
2018-08-16T04:55:48.770Z,12.13
2018-08-16T04:58:24.101Z,13.23
2018-08-16T05:00:58.974Z,13.43
2018-08-16T05:03:33.908Z,13.07
2018-08-16T05:06:09.210Z,12.43
2018-08-16T05:08:44.209Z,13.10
2018-08-16T05:11:19.246Z,14.10
2018-08-16T05:13:54.144Z,12.80
2018-08-16T05:16:29.499Z,12.57
2018-08-16T05:19:04.527Z,13.37
2018-08-16T05:21:40.042Z,12.87
2018-08-16T05:24:14.965Z,13.23
2018-08-16T05:26:50.262Z,13.10
2018-08-16T05:29:25.285Z,13.67
2018-08-16T05:32:01.062Z,13.13
2018-08-16T05:34:35.814Z,12.83
2018-08-16T05:37:10.855Z,13.37
2018-08-16T05:39:45.994Z,12.57
2018-08-16T05:42:21.111Z,12.50
2018-08-16T05:44:56.065Z,12.57
2018-08-16T05:47:31.107Z,12.20
2018-08-16T05:50:10.180Z,12.03
2018-08-16T05:52:45.118Z,12.27
2018-08-16T05:55:20.227Z,12.00
2018-08-16T05:57:55.177Z,12.07
2018-08-16T06:00:30.885Z,12.60
2018-08-16T06:03:06.053Z,12.40
2018-08-16T06:05:41.011Z,12.70
2018-08-16T06:08:16.547Z,11.90
2018-08-16T06:10:52.409Z,10.77
2018-08-16T06:13:29.763Z,11.10
2018-08-16T06:16:06.033Z,10.50
2018-08-16T06:18:41.431Z,12.23
2018-08-16T06:21:16.874Z,12.10
2018-08-16T06:23:52.412Z,11.03
2018-08-16T06:26:28.183Z,11.97
2018-08-16T06:29:04.034Z,12.67
2018-08-16T06:31:38.888Z,12.20
2018-08-16T06:34:14.078Z,12.90
2018-08-16T06:36:49.516Z,12.37
2018-08-16T06:39:24.637Z,13.03
2018-08-16T06:41:59.863Z,12.53
2018-08-16T06:44:35.718Z,12.03
2018-08-16T06:47:14.944Z,11.77
2018-08-16T06:49:50.267Z,11.53
2018-08-16T06:52:25.160Z,11.30
2018-08-16T06:55:01.274Z,12.50
2018-08-16T06:57:36.415Z,11.93
2018-08-16T07:00:12.026Z,11.50
2018-08-16T07:02:48.565Z,11.93
2018-08-16T07:05:24.252Z,11.93
2018-08-16T07:08:00.184Z,12.23
2018-08-16T07:10:35.143Z,11.73
2018-08-16T07:13:10.287Z,11.93
2018-08-16T07:15:45.523Z,12.43
2018-08-16T07:18:20.437Z,11.93
2018-08-16T07:20:55.475Z,11.77
2018-08-16T07:23:30.346Z,11.50
2018-08-16T07:26:05.446Z,12.13
2018-08-16T07:28:41.222Z,12.73
2018-08-16T07:31:16.241Z,12.30
2018-08-16T07:33:51.276Z,13.90
2018-08-16T07:36:26.263Z,12.73
2018-08-16T07:39:01.267Z,12.13
2018-08-16T07:41:36.688Z,12.50
2018-08-16T07:44:11.826Z,11.23
2018-08-16T07:46:47.211Z,11.20
2018-08-16T07:49:22.599Z,12.40
2018-08-16T07:51:57.754Z,12.93
2018-08-16T07:54:33.247Z,12.23
2018-08-16T07:57:08.552Z,12.53
2018-08-16T07:59:43.594Z,11.57
2018-08-16T08:02:18.769Z,12.13
2018-08-16T08:04:54.136Z,11.67
2018-08-16T08:07:29.029Z,12.40
2018-08-16T08:10:04.000Z,12.33
2018-08-16T08:12:39.995Z,12.80
2018-08-16T08:15:15.998Z,12.23
2018-08-16T08:17:51.163Z,12.50
2018-08-16T08:20:26.848Z,12.40
2018-08-16T08:23:02.231Z,11.93
2018-08-16T08:25:38.130Z,12.83
2018-08-16T08:28:13.235Z,13.70
2018-08-16T08:30:48.313Z,13.20
2018-08-16T08:33:23.391Z,13.37
2018-08-16T08:36:09.599Z,15.00
2018-08-16T08:38:44.706Z,15.40
2018-08-16T08:41:20.743Z,15.20
2018-08-16T08:44:09.852Z,13.40
2018-08-16T08:46:46.193Z,11.80
2018-08-16T08:49:21.367Z,13.27
2018-08-16T08:51:56.697Z,12.67
2018-08-16T08:54:47.057Z,12.93
2018-08-16T08:57:34.033Z,12.90
2018-08-16T09:00:09.972Z,12.50
2018-08-16T09:02:44.834Z,12.70
2018-08-16T09:05:20.199Z,12.63
2018-08-16T09:07:54.976Z,13.53
2018-08-16T09:11:08.690Z,12.80
2018-08-16T09:13:56.028Z,12.10
2018-08-16T09:16:33.771Z,11.93
2018-08-16T09:19:09.709Z,12.50
2018-08-16T09:21:44.817Z,11.67
2018-08-16T09:24:19.739Z,12.37
2018-08-16T09:26:54.576Z,12.60
2018-08-16T09:30:40.006Z,12.03
2018-08-16T09:33:26.371Z,11.33
2018-08-16T09:36:01.166Z,11.80
2018-08-16T09:38:36.277Z,11.10
2018-08-16T09:41:11.711Z,11.03
2018-08-16T09:43:46.860Z,10.80
2018-08-16T09:47:02.187Z,10.53
2018-08-16T09:49:39.667Z,11.90
2018-08-16T09:52:15.536Z,11.00
2018-08-16T09:54:51.093Z,12.20
2018-08-16T09:57:26.164Z,11.90
2018-08-16T10:00:01.256Z,12.40
2018-08-16T10:02:36.377Z,11.47
2018-08-16T10:05:12.005Z,12.70
2018-08-16T10:07:47.411Z,12.40
2018-08-16T10:10:22.843Z,12.80
2018-08-16T10:12:58.046Z,12.57
2018-08-16T10:15:32.920Z,12.73
2018-08-16T10:18:08.364Z,12.30
2018-08-16T10:20:43.471Z,12.53
2018-08-16T10:23:18.827Z,13.40
2018-08-16T10:25:53.875Z,13.17
2018-08-16T10:28:28.984Z,13.10
2018-08-16T10:31:04.016Z,13.17
2018-08-16T10:33:44.456Z,12.83
2018-08-16T10:36:20.137Z,12.47
2018-08-16T10:38:56.541Z,11.27
2018-08-16T10:41:32.800Z,14.70
2018-08-16T10:44:08.444Z,14.20
2018-08-16T10:46:44.863Z,13.73
2018-08-16T10:49:20.832Z,13.70
2018-08-16T10:51:56.799Z,12.93
2018-08-16T10:54:33.212Z,14.37
2018-08-16T10:57:10.259Z,14.07
2018-08-16T10:59:51.016Z,15.13
2018-08-16T11:02:27.494Z,14.00
2018-08-16T11:05:03.084Z,15.50
2018-08-16T11:07:37.994Z,14.23
2018-08-16T11:10:13.567Z,14.40
2018-08-16T11:12:48.703Z,12.83
2018-08-16T11:15:23.648Z,15.83
2018-08-16T11:17:58.853Z,14.57
2018-08-16T11:20:33.735Z,15.30
2018-08-16T11:23:08.643Z,14.30
2018-08-16T11:25:43.476Z,16.10
2018-08-16T11:28:18.762Z,15.67
2018-08-16T11:30:54.783Z,14.73
2018-08-16T11:33:29.985Z,15.83
2018-08-16T11:36:05.335Z,14.10
2018-08-16T11:38:42.094Z,17.67
2018-08-16T11:41:17.738Z,16.97
2018-08-16T11:43:53.820Z,16.50
2018-08-16T11:46:29.696Z,15.33
2018-08-16T11:49:05.774Z,14.97
2018-08-16T11:51:41.361Z,14.13
2018-08-16T11:54:11.208Z,16.60
2018-08-16T11:56:41.164Z,16.27
2018-08-16T11:59:10.849Z,15.57
2018-08-16T12:01:40.569Z,15.57
2018-08-16T12:04:10.233Z,16.90
2018-08-16T12:06:39.878Z,15.87
2018-08-16T12:09:09.911Z,15.47
2018-08-16T12:11:39.122Z,14.97
2018-08-16T12:14:08.825Z,14.53
2018-08-16T12:16:38.297Z,13.70
2018-08-16T12:19:08.123Z,15.30
2018-08-16T12:21:37.566Z,16.43
2018-08-16T12:24:06.971Z,16.07
2018-08-16T12:26:36.627Z,15.80
2018-08-16T12:29:06.328Z,14.53
2018-08-16T12:31:35.826Z,15.20
2018-08-16T12:34:05.709Z,13.90
2018-08-16T12:36:35.201Z,13.67
2018-08-16T12:39:10.234Z,13.10
2018-08-16T12:41:45.093Z,13.80
2018-08-16T12:44:20.597Z,13.97
2018-08-16T12:46:55.433Z,14.90
2018-08-16T12:49:30.282Z,12.80
2018-08-16T12:52:06.323Z,13.70
2018-08-16T12:54:41.508Z,14.13
2018-08-16T12:57:16.967Z,12.03
2018-08-16T12:59:52.177Z,13.90
2018-08-16T13:02:27.554Z,13.20
2018-08-16T13:05:02.691Z,13.17
2018-08-16T13:07:37.988Z,13.40
2018-08-16T13:10:13.943Z,13.93
2018-08-16T13:12:48.818Z,13.67
2018-08-16T13:15:23.970Z,13.40
2018-08-16T13:17:59.394Z,12.77
2018-08-16T13:20:29.321Z,13.67
2018-08-16T13:22:59.011Z,12.10
2018-08-16T13:25:28.489Z,12.23
2018-08-16T13:27:58.423Z,12.23
2018-08-16T13:30:34.034Z,12.50
2018-08-16T13:33:09.205Z,11.93
2018-08-16T13:39:33.070Z,13.23
2018-08-16T13:42:08.335Z,11.73
2018-08-16T13:44:43.755Z,10.93
2018-08-16T13:47:18.966Z,11.80
2018-08-16T13:49:54.479Z,11.73
2018-08-16T13:52:30.422Z,11.77
2018-08-16T13:55:05.775Z,11.33
2018-08-16T13:57:40.715Z,11.90
2018-08-16T14:00:15.810Z,11.70
2018-08-16T14:02:50.920Z,11.50
2018-08-16T14:05:24.385Z,11.40
2018-08-16T14:07:54.153Z,10.93
2018-08-16T14:10:29.208Z,11.13
2018-08-16T14:13:03.983Z,12.20
2018-08-16T14:15:39.278Z,11.40
2018-08-16T14:18:14.642Z,11.00
2018-08-16T14:20:49.872Z,11.17
2018-08-16T14:23:24.687Z,11.97
2018-08-16T14:25:59.735Z,11.77
2018-08-16T14:28:34.854Z,11.43
2018-08-16T14:31:09.769Z,11.80
2018-08-16T14:33:44.656Z,11.40
2018-08-16T14:36:19.934Z,11.83
2018-08-16T14:38:55.142Z,11.17
2018-08-16T14:41:30.249Z,11.50
2018-08-16T14:44:05.717Z,11.10
2018-08-16T14:46:41.182Z,11.33
2018-08-16T14:49:16.267Z,11.03
2018-08-16T14:51:51.976Z,11.40
2018-08-16T14:54:27.496Z,11.10
2018-08-16T14:57:02.928Z,11.17
2018-08-16T14:59:37.937Z,11.13
2018-08-16T15:02:13.233Z,10.90
2018-08-16T15:04:48.101Z,11.30
2018-08-16T15:07:23.661Z,10.67
2018-08-16T15:09:53.315Z,11.80
2018-08-16T15:12:28.227Z,11.60
2018-08-16T15:15:03.525Z,10.63
2018-08-16T15:17:38.456Z,11.10
2018-08-16T15:20:13.686Z,12.00
2018-08-16T15:22:48.576Z,12.27
2018-08-16T15:25:23.566Z,11.97
2018-08-16T15:27:59.437Z,11.57
2018-08-16T15:30:34.386Z,11.80
2018-08-16T15:33:09.529Z,11.43
2018-08-16T15:35:44.862Z,11.63
2018-08-16T15:38:19.790Z,12.20
2018-08-16T15:40:55.093Z,11.83
2018-08-16T15:43:30.673Z,11.80
2018-08-16T15:46:06.016Z,12.37
2018-08-16T15:48:40.959Z,11.70
2018-08-16T15:51:15.997Z,12.00
2018-08-16T15:53:51.203Z,11.90
2018-08-16T15:56:26.290Z,12.40
2018-08-16T15:59:01.162Z,12.03
2018-08-16T16:01:36.374Z,11.87
2018-08-16T16:04:11.373Z,12.13
2018-08-16T16:06:46.669Z,12.60
2018-08-16T16:09:21.474Z,11.83
2018-08-16T16:11:56.706Z,11.13
2018-08-16T16:14:31.908Z,12.13
2018-08-16T16:17:07.037Z,11.37
2018-08-16T16:19:42.553Z,11.60
2018-08-16T16:22:17.642Z,11.93
2018-08-16T16:24:52.584Z,12.37
2018-08-16T16:27:28.413Z,12.00
2018-08-16T16:30:03.759Z,12.00
2018-08-16T16:32:38.981Z,11.80
2018-08-16T16:35:14.275Z,12.03
2018-08-16T16:37:49.277Z,12.23
2018-08-16T16:40:24.082Z,12.10
2018-08-16T16:42:59.494Z,11.40
2018-08-16T16:45:34.568Z,12.20
2018-08-16T16:48:09.365Z,11.73
2018-08-16T16:50:44.831Z,11.63
2018-08-16T16:53:20.208Z,12.00
2018-08-16T16:55:55.614Z,12.17
2018-08-16T16:58:30.999Z,12.40
2018-08-16T17:01:06.255Z,12.63
2018-08-16T17:03:41.452Z,12.97
2018-08-16T17:06:16.707Z,12.43
2018-08-16T17:08:51.979Z,11.50
2018-08-16T17:11:27.084Z,12.27
2018-08-16T17:14:01.974Z,12.93
2018-08-16T17:16:37.156Z,11.90
2018-08-16T17:19:13.245Z,12.70
2018-08-16T17:21:48.565Z,12.60
2018-08-16T17:24:23.781Z,13.27
2018-08-16T17:26:59.922Z,12.30
2018-08-16T17:29:41.354Z,12.40
2018-08-16T17:32:16.757Z,14.20
2018-08-16T17:34:52.303Z,17.23
2018-08-16T17:37:27.411Z,13.43
2018-08-16T17:40:03.180Z,15.00
2018-08-16T17:42:38.464Z,14.10
2018-08-16T17:45:13.915Z,14.23
2018-08-16T17:47:49.203Z,14.30
2018-08-16T17:50:25.238Z,13.10
2018-08-16T17:53:00.775Z,13.77
2018-08-16T17:55:36.264Z,14.20
2018-08-16T17:58:11.699Z,14.70
2018-08-16T18:00:46.837Z,13.97
2018-08-16T18:03:23.854Z,13.00
2018-08-16T18:05:59.673Z,13.93
2018-08-16T18:08:35.171Z,13.30
2018-08-16T18:11:10.980Z,14.20
2018-08-16T18:13:45.704Z,16.07
2018-08-16T18:16:20.783Z,15.30
2018-08-16T18:18:55.985Z,15.50
2018-08-16T18:21:31.133Z,14.87
2018-08-16T18:24:06.113Z,14.37
2018-08-16T18:26:47.755Z,13.87
2018-08-16T18:29:23.280Z,13.40
2018-08-16T18:31:58.703Z,13.37
2018-08-16T18:34:33.683Z,14.57
2018-08-16T18:37:08.989Z,15.00
2018-08-16T18:39:40.975Z,15.13
2018-08-16T18:42:16.253Z,15.23
2018-08-16T18:44:51.621Z,14.17
2018-08-16T18:47:27.578Z,13.03
2018-08-16T18:50:02.703Z,13.80
2018-08-16T18:52:37.813Z,13.50
2018-08-16T18:55:07.996Z,12.93
2018-08-16T18:57:37.220Z,14.37
2018-08-16T19:00:08.444Z,13.90
2018-08-16T19:02:37.592Z,15.60
2018-08-16T19:05:07.316Z,13.07
2018-08-16T19:07:36.574Z,13.70
2018-08-16T19:10:07.138Z,13.77
2018-08-16T19:12:36.615Z,14.37
2018-08-16T19:15:06.625Z,15.43
2018-08-16T19:17:35.895Z,16.00
2018-08-16T19:20:06.036Z,15.23
2018-08-16T19:22:35.561Z,14.30
2018-08-16T19:25:06.522Z,14.70
2018-08-16T19:27:41.931Z,14.50
2018-08-16T19:30:18.169Z,15.47
2018-08-16T19:32:53.306Z,14.10
2018-08-16T19:35:28.552Z,15.70
2018-08-16T19:38:03.466Z,14.20
2018-08-16T19:40:38.656Z,14.17
2018-08-16T19:43:13.867Z,14.60
2018-08-16T19:45:48.852Z,14.43
2018-08-16T19:48:23.837Z,14.47
2018-08-16T19:50:59.119Z,14.23
2018-08-16T19:53:34.448Z,13.70
2018-08-16T19:56:09.885Z,13.07
2018-08-16T19:58:39.531Z,13.87
2018-08-16T20:01:15.453Z,13.20
2018-08-16T20:03:51.397Z,14.60
2018-08-16T20:06:26.678Z,14.10
2018-08-16T20:09:01.940Z,13.30
2018-08-16T20:11:37.612Z,13.90
2018-08-16T20:14:12.811Z,14.30
2018-08-16T20:16:48.748Z,13.03
2018-08-16T20:19:24.100Z,14.20
2018-08-16T20:21:59.137Z,14.90
2018-08-16T20:24:34.279Z,15.00
2018-08-16T20:27:09.353Z,14.03
2018-08-16T20:29:44.999Z,16.00
2018-08-16T20:32:20.351Z,16.40
2018-08-16T20:34:55.509Z,16.50
2018-08-16T20:37:30.651Z,16.00
2018-08-16T20:40:06.588Z,15.03
2018-08-16T20:42:42.352Z,15.27
2018-08-16T20:45:17.950Z,15.83
2018-08-16T20:47:52.925Z,16.90
2018-08-16T20:50:28.194Z,16.47
2018-08-16T20:53:03.876Z,16.40
2018-08-16T20:55:38.933Z,16.60
2018-08-16T20:58:14.160Z,16.53
2018-08-16T21:00:48.977Z,16.93
2018-08-16T21:03:24.882Z,16.40
2018-08-16T21:06:00.199Z,18.70
2018-08-16T21:08:35.487Z,18.10
2018-08-16T21:11:16.890Z,17.80
2018-08-16T21:13:51.842Z,18.53
2018-08-16T21:16:26.689Z,17.77
2018-08-16T21:19:01.729Z,17.60
2018-08-16T21:21:37.077Z,18.83
2018-08-16T21:24:12.592Z,18.97
2018-08-16T21:26:47.747Z,19.20
2018-08-16T21:29:22.848Z,18.97
2018-08-16T21:31:57.915Z,18.90
2018-08-16T21:34:33.250Z,18.70
2018-08-16T21:37:08.339Z,18.57
2018-08-16T21:39:43.246Z,18.97
2018-08-16T21:42:18.589Z,19.50
2018-08-16T21:44:53.914Z,19.10
2018-08-16T21:47:29.120Z,18.40
2018-08-16T21:50:04.761Z,18.33
2018-08-16T21:52:39.837Z,19.53
2018-08-16T21:55:15.003Z,19.20
2018-08-16T21:57:49.938Z,20.00
2018-08-16T22:00:47.539Z,19.40
2018-08-16T22:03:23.678Z,18.37
2018-08-16T22:06:03.926Z,19.93
2018-08-16T22:08:44.831Z,19.10
2018-08-16T22:11:20.627Z,19.73
2018-08-16T22:13:55.557Z,21.37
2018-08-16T22:16:31.041Z,19.27
2018-08-16T22:19:06.067Z,21.00
2018-08-16T22:21:41.323Z,21.03
2018-08-16T22:24:16.899Z,20.13
2018-08-16T22:26:52.135Z,20.33
2018-08-16T22:29:26.940Z,19.77
2018-08-16T22:32:01.999Z,19.70
2018-08-16T22:34:36.939Z,19.43
2018-08-16T22:37:12.363Z,19.90
2018-08-16T22:39:47.425Z,19.97
2018-08-16T22:42:23.109Z,20.07
2018-08-16T22:44:58.730Z,21.00
2018-08-16T22:47:33.825Z,19.63
2018-08-16T22:50:09.301Z,19.10
2018-08-16T22:52:44.746Z,19.17
2018-08-16T22:55:20.047Z,18.87
2018-08-16T22:57:55.014Z,19.77
2018-08-16T23:00:30.093Z,19.87
2018-08-16T23:03:05.269Z,19.73
2018-08-16T23:05:40.269Z,20.53
2018-08-16T23:08:15.230Z,21.40
2018-08-16T23:10:50.140Z,21.93
2018-08-16T23:13:25.121Z,21.10
2018-08-16T23:16:00.215Z,20.40
2018-08-16T23:18:35.396Z,19.97
2018-08-16T23:21:10.563Z,20.30
2018-08-16T23:23:45.590Z,21.00
2018-08-16T23:26:20.896Z,20.67
2018-08-16T23:28:55.699Z,20.63
2018-08-16T23:31:30.712Z,21.53
2018-08-16T23:34:05.922Z,21.47
2018-08-16T23:36:40.903Z,20.60
2018-08-16T23:39:16.124Z,21.50
2018-08-16T23:41:51.290Z,21.97
2018-08-16T23:44:26.541Z,21.33
2018-08-16T23:47:01.296Z,21.13
2018-08-16T23:49:36.130Z,21.30
2018-08-16T23:52:10.940Z,22.63
2018-08-16T23:54:46.171Z,20.43
2018-08-16T23:57:21.603Z,21.50
2018-08-16T23:59:56.419Z,20.83
